Stephen Scott — WCW8842 — position and weather

sailwx.info

Track history (hours):
 
Tides and Currents Weather Stations Pressure Air Temp Water Temp Dewpoint Dewpoint Depression Visibility Wind Speed Wind Dir Waves Ship Positions

Stephen Scott

Owner: H A REINAUER INC, STATEN ISLAND, NY. More information available from US FCC via Universal Licensing System and Coast Guard Vessel Documentation Center.

Last reported at 2014-Nov-22 20:15 UTC. Time now 2014-Nov-22 21:35 UTC.
Position N 39°17' W 076°14'.

Length 30 m; draft 2.5 m.

Type: Towing. MMSI: 366245490.

Date/timePositionNaut miles runAvg speedWind from/ knotsBaromVisibWave heightAir tempDewpointWater temp
2014-Nov-22 20:15N 39°17' W 076°14'6 7.6
2014-Nov-22 19:30N 39°12' W 076°16'6 6.3
2014-Nov-22 18:32N 39°10' W 076°24'8 7.6
2014-Nov-22 17:33N 39°13' W 076°32'3 3.4
2014-Nov-22 16:33N 39°16' W 076°34'1 1.0
2014-Nov-22 15:33N 39°17' W 076°36'0 0.0
2014-Nov-22 14:33N 39°17' W 076°36'0 0.0
2014-Nov-22 13:33N 39°17' W 076°36'0 0.0
2014-Nov-22 12:33N 39°17' W 076°36'0 0.0
2014-Nov-22 11:33N 39°17' W 076°36'0 0.0
2014-Nov-22 10:33N 39°17' W 076°36'0 0.0
2014-Nov-22 09:33N 39°17' W 076°36'0 0.0
2014-Nov-22 08:33N 39°17' W 076°36'0 0.0
2014-Nov-22 07:33N 39°17' W 076°36'0 0.0
2014-Nov-22 06:33N 39°17' W 076°36'0 0.0
2014-Nov-22 05:33N 39°17' W 076°36'0 0.0
2014-Nov-22 04:33N 39°17' W 076°36'0 0.0
2014-Nov-22 03:33N 39°17' W 076°36'2 1.5
2014-Nov-22 02:33N 39°16' W 076°34'0 0.0
2014-Nov-22 01:34N 39°16' W 076°34'2 1.5
2014-Nov-22 00:33N 39°17' W 076°36'0 0.0
2014-Nov-21 23:33N 39°17' W 076°36'0 0.0
2014-Nov-21 22:33N 39°17' W 076°36'0 0.0
2014-Nov-21 21:33N 39°17' W 076°36'0 0.0
2014-Nov-21 20:33N 39°17' W 076°36'0 0.0
2014-Nov-21 19:33N 39°17' W 076°36'0 0.0
2014-Nov-21 18:33N 39°17' W 076°36'0 0.0
2014-Nov-21 17:33N 39°17' W 076°36'0 0.0
2014-Nov-21 16:33N 39°17' W 076°36'0 0.0
2014-Nov-21 15:33N 39°17' W 076°36'0 0.0
2014-Nov-21 14:33N 39°17' W 076°36'0 0.0
2014-Nov-21 13:33N 39°17' W 076°36'3 3.0
2014-Nov-21 12:34N 39°14' W 076°34'1 0.9
2014-Nov-21 11:33N 39°14' W 076°33'12 5.9
2014-Nov-21 09:33N 39°10' W 076°18'7 7.1
2014-Nov-21 08:29N 39°17' W 076°14'25 7.7
2014-Nov-21 05:11N 39°32' W 075°48'6 8.7
2014-Nov-21 04:33N 39°33' W 075°40'6 6.0
2014-Nov-21 03:33N 39°32' W 075°33'8 7.7
2014-Nov-21 02:33N 39°24' W 075°30'79 3.5
2014-Nov-20 04:11N 39°57' W 073°57'10 6.2
2014-Nov-20 02:32N 40°07' W 073°56'6 6.3
2014-Nov-20 01:33N 40°14' W 073°55'7 6.5
2014-Nov-20 00:33N 40°20' W 073°54'6 6.4
2014-Nov-19 23:33N 40°27' W 073°54'5 5.3
2014-Nov-19 22:33N 40°31' W 073°58'5 5.0
2014-Nov-19 21:33N 40°35' W 074°02'3 3.4
2014-Nov-19 20:33N 40°38' W 074°03'6 5.3
2014-Nov-19 19:30N 40°39' W 074°11'3 3.1
2014-Nov-19 18:32N 40°36' W 074°12'1 1.2
2014-Nov-19 17:33N 40°37' W 074°12'9 8.8
2014-Nov-19 16:34N 40°40' W 074°02'1 0.6
2014-Nov-19 15:33N 40°40' W 074°01'0 0.0
2014-Nov-19 14:33N 40°40' W 074°01'0 0.0
2014-Nov-19 13:33N 40°40' W 074°01'0 0.0
2014-Nov-19 12:33N 40°40' W 074°01'0 0.0
2014-Nov-19 11:33N 40°40' W 074°01'0 0.0
2014-Nov-19 10:33N 40°40' W 074°01'0 0.0
2014-Nov-19 09:33N 40°40' W 074°01'0 0.0
2014-Nov-19 08:33N 40°40' W 074°01'3 2.6
2014-Nov-19 07:34N 40°39' W 074°04'5 5.0
2014-Nov-19 06:32N 40°39' W 074°11'3 2.7
2014-Nov-19 05:28N 40°36' W 074°12'3 3.6
2014-Nov-19 04:33N 40°39' W 074°10'6 5.8
2014-Nov-19 03:33N 40°39' W 074°02'0 0.0
2014-Nov-19 02:33N 40°39' W 074°02'0 0.0
2014-Nov-19 01:33N 40°39' W 074°02'0 0.0
2014-Nov-19 00:33N 40°39' W 074°02'0 0.0
2014-Nov-18 23:33N 40°39' W 074°02'0 0.0
2014-Nov-18 22:33N 40°39' W 074°02'0 0.0
2014-Nov-18 21:33N 40°39' W 074°02'0 0.0
2014-Nov-18 20:33N 40°39' W 074°02'0 0.1
2014-Nov-18 19:33N 40°39' W 074°02'0 0.0
2014-Nov-18 18:33N 40°39' W 074°02'0 0.1
2014-Nov-18 17:33N 40°39' W 074°02'0 0.0
2014-Nov-18 16:33N 40°39' W 074°02'0 0.0
2014-Nov-18 15:33N 40°39' W 074°02'0 0.1
2014-Nov-18 14:33N 40°39' W 074°02'0 0.0
2014-Nov-18 13:33N 40°39' W 074°02'0 0.0
2014-Nov-18 12:33N 40°39' W 074°02'0 0.0
2014-Nov-18 11:33N 40°39' W 074°02'0 0.0
2014-Nov-18 10:33N 40°39' W 074°02'0 0.0
2014-Nov-18 09:33N 40°39' W 074°02'0 0.0
2014-Nov-18 08:33N 40°39' W 074°02'0 0.0
2014-Nov-18 07:33N 40°39' W 074°02'0 0.0
2014-Nov-18 06:33N 40°39' W 074°02'0 0.1
2014-Nov-18 05:33N 40°39' W 074°02'0 0.0
2014-Nov-18 04:33N 40°39' W 074°02'0 0.0
2014-Nov-18 03:33N 40°39' W 074°02'0 0.0
2014-Nov-18 02:33N 40°39' W 074°02'0 0.0
2014-Nov-18 01:33N 40°39' W 074°02'0 0.0
2014-Nov-18 00:33N 40°39' W 074°02'0 0.1
2014-Nov-17 23:33N 40°39' W 074°02'0 0.1
2014-Nov-17 22:33N 40°39' W 074°02'0 0.0
2014-Nov-17 21:33N 40°39' W 074°02'0 0.0
2014-Nov-17 20:33N 40°39' W 074°02'0 0.1
2014-Nov-17 19:33N 40°39' W 074°02'0 0.0
2014-Nov-17 18:33N 40°39' W 074°02'0 0.1
2014-Nov-17 17:33N 40°39' W 074°02'0 0.0
2014-Nov-17 16:34N 40°39' W 074°02'0 0.0
2014-Nov-17 15:33N 40°39' W 074°02'0 0.0
2014-Nov-17 14:33N 40°39' W 074°02'0 0.0
2014-Nov-17 13:33N 40°39' W 074°02'0 0.0
2014-Nov-17 12:33N 40°39' W 074°02'0 0.0
2014-Nov-17 11:33N 40°39' W 074°02'0 0.1
2014-Nov-17 10:33N 40°39' W 074°02'0 0.0
2014-Nov-17 09:33N 40°39' W 074°02'0 0.0
2014-Nov-17 08:33N 40°39' W 074°02'0 0.0
2014-Nov-17 07:33N 40°39' W 074°02'0 0.1
2014-Nov-17 06:33N 40°39' W 074°02'0 0.1
2014-Nov-17 05:33N 40°39' W 074°02'0 0.0
2014-Nov-17 04:33N 40°39' W 074°02'0 0.0
2014-Nov-17 03:33N 40°39' W 074°02'0 0.0
2014-Nov-17 02:33N 40°39' W 074°02'0 0.0
2014-Nov-17 01:33N 40°39' W 074°02'0 0.1
2014-Nov-17 00:33N 40°39' W 074°03'7 7.3
2014-Nov-16 23:33N 40°38' W 074°12'3 3.1
2014-Nov-16 22:29N 40°35' W 074°13'3 2.4
2014-Nov-16 21:26N 40°33' W 074°15'6 6.0
2014-Nov-16 20:30N 40°38' W 074°12'0 0.3
2014-Nov-16 19:28N 40°38' W 074°12'5 4.6
2014-Nov-16 18:19N 40°33' W 074°15'0 0.1
2014-Nov-16 17:22N 40°33' W 074°15'0 0.0
2014-Nov-16 16:26N 40°33' W 074°15'0 0.0
2014-Nov-16 15:33N 40°33' W 074°15'0 0.0
2014-Nov-16 14:27N 40°33' W 074°15'0 0.0
2014-Nov-16 13:33N 40°33' W 074°15'1 0.1
2014-Nov-16 09:31N 40°32' W 074°15'3 2.8
2014-Nov-16 08:30N 40°35' W 074°13'1 1.4
2014-Nov-16 07:34N 40°36' W 074°12'0 0.0
2014-Nov-16 06:33N 40°36' W 074°12'2 1.9
2014-Nov-16 05:24N 40°38' W 074°12'2 2.6
2014-Nov-16 04:33N 40°36' W 074°12'0 0.0
2014-Nov-16 02:33N 40°36' W 074°12'0 0.0
2014-Nov-16 01:31N 40°36' W 074°12'0 0.0
2014-Nov-16 00:33N 40°36' W 074°12'0 0.0
2014-Nov-15 23:32N 40°36' W 074°12'0 0.0
2014-Nov-15 22:33N 40°36' W 074°12'0 0.0
2014-Nov-15 21:33N 40°36' W 074°12'0 0.0
2014-Nov-15 20:32N 40°36' W 074°12'3 2.7
2014-Nov-15 19:33N 40°38' W 074°12'0 0.0
2014-Nov-15 18:33N 40°38' W 074°12'0 0.0
2014-Nov-15 17:33N 40°38' W 074°12'0 0.0
2014-Nov-15 16:33N 40°38' W 074°12'1 0.5
2014-Nov-15 15:24N 40°38' W 074°12'3 4.0
2014-Nov-15 14:33N 40°39' W 074°08'0 0.0
2014-Nov-15 12:33N 40°38' W 074°08'5 4.0
2014-Nov-15 11:25N 40°36' W 074°12'1 1.5
2014-Nov-15 10:33N 40°37' W 074°12'6 5.9
2014-Nov-15 09:33N 40°39' W 074°05'5 4.8
2014-Nov-15 08:33N 40°35' W 074°02'1 1.2
2014-Nov-15 07:33N 40°34' W 074°02'6 5.9
2014-Nov-15 06:32N 40°30' W 073°56'5 5.0
2014-Nov-15 05:30N 40°25' W 073°54'7 6.1
2014-Nov-15 04:26N 40°18' W 073°54'6 6.3
2014-Nov-15 03:29N 40°12' W 073°55'13 6.4
2014-Nov-15 01:27N 39°59' W 073°57'6 6.7
2014-Nov-15 00:33N 39°53' W 073°57'7 6.6
2014-Nov-14 23:33N 39°47' W 073°58'7 6.5
2014-Nov-14 22:33N 39°41' W 074°01'68 3.9
2014-Nov-14 05:03N 39°20' W 075°25'4 7.3
2014-Nov-14 04:31N 39°23' W 075°29'7 7.5
2014-Nov-14 03:33N 39°29' W 075°34'4 4.1
2014-Nov-14 02:33N 39°33' W 075°33'8 8.1
2014-Nov-14 01:33N 39°41' W 075°31'9 0.6
2014-Nov-13 10:19N 39°49' W 075°24'1 0.9
2014-Nov-13 09:11N 39°49' W 075°23'7 2.6
2014-Nov-13 06:33N 39°45' W 075°30'9 9.2
2014-Nov-13 05:33N 39°36' W 075°34'7 6.7
2014-Nov-13 04:33N 39°33' W 075°41'28 9.4
2014-Nov-13 01:33N 39°19' W 076°13'9 8.6
2014-Nov-13 00:33N 39°11' W 076°17'8 7.8
2014-Nov-12 23:33N 39°11' W 076°27'6 5.9
2014-Nov-12 22:33N 39°14' W 076°34'0 0.0
2014-Nov-12 21:05N 39°14' W 076°34'  
Track history (hours):
 
Tides and Currents Weather Stations Pressure Air Temp Water Temp Dewpoint Dewpoint Depression Visibility Wind Speed Wind Dir Waves Ship Positions

Stephen Scott

Owner: H A REINAUER INC, STATEN ISLAND, NY. More information available from US FCC via Universal Licensing System and Coast Guard Vessel Documentation Center.

Last reported at 2014-Nov-22 20:15 UTC. Time now 2014-Nov-22 21:35 UTC.
Position N 39°17' W 076°14'.

Length 30 m; draft 2.5 m.

Type: Towing. MMSI: 366245490.

Date/timePositionNaut miles runAvg speedWind from/ knotsBaromVisibWave heightAir tempDewpointWater temp
2014-Nov-22 20:15N 39°17' W 076°14'6 7.6
2014-Nov-22 19:30N 39°12' W 076°16'6 6.3
2014-Nov-22 18:32N 39°10' W 076°24'8 7.6
2014-Nov-22 17:33N 39°13' W 076°32'3 3.4
2014-Nov-22 16:33N 39°16' W 076°34'1 1.0
2014-Nov-22 15:33N 39°17' W 076°36'0 0.0
2014-Nov-22 14:33N 39°17' W 076°36'0 0.0
2014-Nov-22 13:33N 39°17' W 076°36'0 0.0
2014-Nov-22 12:33N 39°17' W 076°36'0 0.0
2014-Nov-22 11:33N 39°17' W 076°36'0 0.0
2014-Nov-22 10:33N 39°17' W 076°36'0 0.0
2014-Nov-22 09:33N 39°17' W 076°36'0 0.0
2014-Nov-22 08:33N 39°17' W 076°36'0 0.0
2014-Nov-22 07:33N 39°17' W 076°36'0 0.0
2014-Nov-22 06:33N 39°17' W 076°36'0 0.0
2014-Nov-22 05:33N 39°17' W 076°36'0 0.0
2014-Nov-22 04:33N 39°17' W 076°36'0 0.0
2014-Nov-22 03:33N 39°17' W 076°36'2 1.5
2014-Nov-22 02:33N 39°16' W 076°34'0 0.0
2014-Nov-22 01:34N 39°16' W 076°34'2 1.5
2014-Nov-22 00:33N 39°17' W 076°36'0 0.0
2014-Nov-21 23:33N 39°17' W 076°36'0 0.0
2014-Nov-21 22:33N 39°17' W 076°36'0 0.0
2014-Nov-21 21:33N 39°17' W 076°36'0 0.0
2014-Nov-21 20:33N 39°17' W 076°36'0 0.0
2014-Nov-21 19:33N 39°17' W 076°36'0 0.0
2014-Nov-21 18:33N 39°17' W 076°36'0 0.0
2014-Nov-21 17:33N 39°17' W 076°36'0 0.0
2014-Nov-21 16:33N 39°17' W 076°36'0 0.0
2014-Nov-21 15:33N 39°17' W 076°36'0 0.0
2014-Nov-21 14:33N 39°17' W 076°36'0 0.0
2014-Nov-21 13:33N 39°17' W 076°36'3 3.0
2014-Nov-21 12:34N 39°14' W 076°34'1 0.9
2014-Nov-21 11:33N 39°14' W 076°33'12 5.9
2014-Nov-21 09:33N 39°10' W 076°18'7 7.1
2014-Nov-21 08:29N 39°17' W 076°14'25 7.7
2014-Nov-21 05:11N 39°32' W 075°48'6 8.7
2014-Nov-21 04:33N 39°33' W 075°40'6 6.0
2014-Nov-21 03:33N 39°32' W 075°33'8 7.7
2014-Nov-21 02:33N 39°24' W 075°30'79 3.5
2014-Nov-20 04:11N 39°57' W 073°57'10 6.2
2014-Nov-20 02:32N 40°07' W 073°56'6 6.3
2014-Nov-20 01:33N 40°14' W 073°55'7 6.5
2014-Nov-20 00:33N 40°20' W 073°54'6 6.4
2014-Nov-19 23:33N 40°27' W 073°54'5 5.3
2014-Nov-19 22:33N 40°31' W 073°58'5 5.0
2014-Nov-19 21:33N 40°35' W 074°02'3 3.4
2014-Nov-19 20:33N 40°38' W 074°03'6 5.3
2014-Nov-19 19:30N 40°39' W 074°11'3 3.1
2014-Nov-19 18:32N 40°36' W 074°12'1 1.2
2014-Nov-19 17:33N 40°37' W 074°12'9 8.8
2014-Nov-19 16:34N 40°40' W 074°02'1 0.6
2014-Nov-19 15:33N 40°40' W 074°01'0 0.0
2014-Nov-19 14:33N 40°40' W 074°01'0 0.0
2014-Nov-19 13:33N 40°40' W 074°01'0 0.0
2014-Nov-19 12:33N 40°40' W 074°01'0 0.0
2014-Nov-19 11:33N 40°40' W 074°01'0 0.0
2014-Nov-19 10:33N 40°40' W 074°01'0 0.0
2014-Nov-19 09:33N 40°40' W 074°01'0 0.0
2014-Nov-19 08:33N 40°40' W 074°01'3 2.6
2014-Nov-19 07:34N 40°39' W 074°04'5 5.0
2014-Nov-19 06:32N 40°39' W 074°11'3 2.7
2014-Nov-19 05:28N 40°36' W 074°12'3 3.6
2014-Nov-19 04:33N 40°39' W 074°10'6 5.8
2014-Nov-19 03:33N 40°39' W 074°02'0 0.0
2014-Nov-19 02:33N 40°39' W 074°02'0 0.0
2014-Nov-19 01:33N 40°39' W 074°02'0 0.0
2014-Nov-19 00:33N 40°39' W 074°02'0 0.0
2014-Nov-18 23:33N 40°39' W 074°02'0 0.0
2014-Nov-18 22:33N 40°39' W 074°02'0 0.0
2014-Nov-18 21:33N 40°39' W 074°02'0 0.0
2014-Nov-18 20:33N 40°39' W 074°02'0 0.1
2014-Nov-18 19:33N 40°39' W 074°02'0 0.0
2014-Nov-18 18:33N 40°39' W 074°02'0 0.1
2014-Nov-18 17:33N 40°39' W 074°02'0 0.0
2014-Nov-18 16:33N 40°39' W 074°02'0 0.0
2014-Nov-18 15:33N 40°39' W 074°02'0 0.1
2014-Nov-18 14:33N 40°39' W 074°02'0 0.0
2014-Nov-18 13:33N 40°39' W 074°02'0 0.0
2014-Nov-18 12:33N 40°39' W 074°02'0 0.0
2014-Nov-18 11:33N 40°39' W 074°02'0 0.0
2014-Nov-18 10:33N 40°39' W 074°02'0 0.0
2014-Nov-18 09:33N 40°39' W 074°02'0 0.0
2014-Nov-18 08:33N 40°39' W 074°02'0 0.0
2014-Nov-18 07:33N 40°39' W 074°02'0 0.0
2014-Nov-18 06:33N 40°39' W 074°02'0 0.1
2014-Nov-18 05:33N 40°39' W 074°02'0 0.0
2014-Nov-18 04:33N 40°39' W 074°02'0 0.0
2014-Nov-18 03:33N 40°39' W 074°02'0 0.0
2014-Nov-18 02:33N 40°39' W 074°02'0 0.0
2014-Nov-18 01:33N 40°39' W 074°02'0 0.0
2014-Nov-18 00:33N 40°39' W 074°02'0 0.1
2014-Nov-17 23:33N 40°39' W 074°02'0 0.1
2014-Nov-17 22:33N 40°39' W 074°02'0 0.0
2014-Nov-17 21:33N 40°39' W 074°02'0 0.0
2014-Nov-17 20:33N 40°39' W 074°02'0 0.1
2014-Nov-17 19:33N 40°39' W 074°02'0 0.0
2014-Nov-17 18:33N 40°39' W 074°02'0 0.1
2014-Nov-17 17:33N 40°39' W 074°02'0 0.0
2014-Nov-17 16:34N 40°39' W 074°02'0 0.0
2014-Nov-17 15:33N 40°39' W 074°02'0 0.0
2014-Nov-17 14:33N 40°39' W 074°02'0 0.0
2014-Nov-17 13:33N 40°39' W 074°02'0 0.0
2014-Nov-17 12:33N 40°39' W 074°02'0 0.0
2014-Nov-17 11:33N 40°39' W 074°02'0 0.1
2014-Nov-17 10:33N 40°39' W 074°02'0 0.0
2014-Nov-17 09:33N 40°39' W 074°02'0 0.0
2014-Nov-17 08:33N 40°39' W 074°02'0 0.0
2014-Nov-17 07:33N 40°39' W 074°02'0 0.1
2014-Nov-17 06:33N 40°39' W 074°02'0 0.1
2014-Nov-17 05:33N 40°39' W 074°02'0 0.0
2014-Nov-17 04:33N 40°39' W 074°02'0 0.0
2014-Nov-17 03:33N 40°39' W 074°02'0 0.0
2014-Nov-17 02:33N 40°39' W 074°02'0 0.0
2014-Nov-17 01:33N 40°39' W 074°02'0 0.1
2014-Nov-17 00:33N 40°39' W 074°03'7 7.3
2014-Nov-16 23:33N 40°38' W 074°12'3 3.1
2014-Nov-16 22:29N 40°35' W 074°13'3 2.4
2014-Nov-16 21:26N 40°33' W 074°15'6 6.0
2014-Nov-16 20:30N 40°38' W 074°12'0 0.3
2014-Nov-16 19:28N 40°38' W 074°12'5 4.6
2014-Nov-16 18:19N 40°33' W 074°15'0 0.1
2014-Nov-16 17:22N 40°33' W 074°15'0 0.0
2014-Nov-16 16:26N 40°33' W 074°15'0 0.0
2014-Nov-16 15:33N 40°33' W 074°15'0 0.0
2014-Nov-16 14:27N 40°33' W 074°15'0 0.0
2014-Nov-16 13:33N 40°33' W 074°15'1 0.1
2014-Nov-16 09:31N 40°32' W 074°15'3 2.8
2014-Nov-16 08:30N 40°35' W 074°13'1 1.4
2014-Nov-16 07:34N 40°36' W 074°12'0 0.0
2014-Nov-16 06:33N 40°36' W 074°12'2 1.9
2014-Nov-16 05:24N 40°38' W 074°12'2 2.6
2014-Nov-16 04:33N 40°36' W 074°12'0 0.0
2014-Nov-16 02:33N 40°36' W 074°12'0 0.0
2014-Nov-16 01:31N 40°36' W 074°12'0 0.0
2014-Nov-16 00:33N 40°36' W 074°12'0 0.0
2014-Nov-15 23:32N 40°36' W 074°12'0 0.0
2014-Nov-15 22:33N 40°36' W 074°12'0 0.0
2014-Nov-15 21:33N 40°36' W 074°12'0 0.0
2014-Nov-15 20:32N 40°36' W 074°12'3 2.7
2014-Nov-15 19:33N 40°38' W 074°12'0 0.0
2014-Nov-15 18:33N 40°38' W 074°12'0 0.0
2014-Nov-15 17:33N 40°38' W 074°12'0 0.0
2014-Nov-15 16:33N 40°38' W 074°12'1 0.5
2014-Nov-15 15:24N 40°38' W 074°12'3 4.0
2014-Nov-15 14:33N 40°39' W 074°08'0 0.0
2014-Nov-15 12:33N 40°38' W 074°08'5 4.0
2014-Nov-15 11:25N 40°36' W 074°12'1 1.5
2014-Nov-15 10:33N 40°37' W 074°12'6 5.9
2014-Nov-15 09:33N 40°39' W 074°05'5 4.8
2014-Nov-15 08:33N 40°35' W 074°02'1 1.2
2014-Nov-15 07:33N 40°34' W 074°02'6 5.9
2014-Nov-15 06:32N 40°30' W 073°56'5 5.0
2014-Nov-15 05:30N 40°25' W 073°54'7 6.1
2014-Nov-15 04:26N 40°18' W 073°54'6 6.3
2014-Nov-15 03:29N 40°12' W 073°55'13 6.4
2014-Nov-15 01:27N 39°59' W 073°57'6 6.7
2014-Nov-15 00:33N 39°53' W 073°57'7 6.6
2014-Nov-14 23:33N 39°47' W 073°58'7 6.5
2014-Nov-14 22:33N 39°41' W 074°01'68 3.9
2014-Nov-14 05:03N 39°20' W 075°25'4 7.3
2014-Nov-14 04:31N 39°23' W 075°29'7 7.5
2014-Nov-14 03:33N 39°29' W 075°34'4 4.1
2014-Nov-14 02:33N 39°33' W 075°33'8 8.1
2014-Nov-14 01:33N 39°41' W 075°31'9 0.6
2014-Nov-13 10:19N 39°49' W 075°24'1 0.9
2014-Nov-13 09:11N 39°49' W 075°23'7 2.6
2014-Nov-13 06:33N 39°45' W 075°30'9 9.2
2014-Nov-13 05:33N 39°36' W 075°34'7 6.7
2014-Nov-13 04:33N 39°33' W 075°41'28 9.4
2014-Nov-13 01:33N 39°19' W 076°13'9 8.6
2014-Nov-13 00:33N 39°11' W 076°17'8 7.8
2014-Nov-12 23:33N 39°11' W 076°27'6 5.9
2014-Nov-12 22:33N 39°14' W 076°34'0 0.0
2014-Nov-12 21:05N 39°14' W 076°34'  

Dump ship's entire track history